createdAt,value
2018-12-25T00:00:13.266Z,4.50
2018-12-25T00:01:13.233Z,4.70
2018-12-25T00:02:13.214Z,4.80
2018-12-25T00:03:13.191Z,4.10
2018-12-25T00:04:13.167Z,4.40
2018-12-25T00:05:13.143Z,4.20
2018-12-25T00:06:13.119Z,4.40
2018-12-25T00:07:13.098Z,4.30
2018-12-25T00:08:13.079Z,4.80
2018-12-25T00:09:13.051Z,4.40
2018-12-25T00:10:13.035Z,4.50
2018-12-25T00:11:13.006Z,4.60
2018-12-25T00:12:12.981Z,4.30
2018-12-25T00:13:12.958Z,4.30
2018-12-25T00:14:12.943Z,4.40
2018-12-25T00:15:12.917Z,4.40
2018-12-25T00:16:12.895Z,4.50
2018-12-25T00:17:12.868Z,4.00
2018-12-25T00:18:12.843Z,4.20
2018-12-25T00:19:12.833Z,4.30
2018-12-25T00:20:12.799Z,4.40
2018-12-25T00:21:12.781Z,3.90
2018-12-25T00:22:12.756Z,4.00
2018-12-25T00:23:12.732Z,4.00
2018-12-25T00:24:12.711Z,4.30
2018-12-25T00:25:12.688Z,4.40
2018-12-25T00:26:12.666Z,4.30
2018-12-25T00:27:12.643Z,4.20
2018-12-25T00:28:12.629Z,4.20
2018-12-25T00:29:12.596Z,4.20
2018-12-25T00:30:12.573Z,4.30
2018-12-25T00:31:12.544Z,4.20
2018-12-25T00:32:12.524Z,4.50
2018-12-25T00:33:12.501Z,4.00
2018-12-25T00:34:12.484Z,4.30
2018-12-25T00:35:12.460Z,4.10
2018-12-25T00:36:12.436Z,4.10
2018-12-25T00:37:12.415Z,4.50
2018-12-25T00:38:12.391Z,4.20
2018-12-25T00:39:12.366Z,3.60
2018-12-25T00:40:12.343Z,4.10
2018-12-25T00:41:12.320Z,3.60
2018-12-25T00:42:12.297Z,3.90
2018-12-25T00:43:12.281Z,3.70
2018-12-25T00:44:12.250Z,4.10
2018-12-25T00:45:12.225Z,3.50
2018-12-25T00:46:12.208Z,3.80
2018-12-25T00:47:12.184Z,3.60
2018-12-25T00:48:12.157Z,3.60
2018-12-25T00:49:14.912Z,3.40
2018-12-25T00:50:12.114Z,3.60
2018-12-25T00:51:12.088Z,4.20
2018-12-25T00:52:12.069Z,3.30
2018-12-25T00:53:12.047Z,3.40
2018-12-25T00:54:12.022Z,3.80
2018-12-25T00:55:12.004Z,3.90
2018-12-25T00:56:11.979Z,3.90
2018-12-25T00:57:11.952Z,3.20
2018-12-25T00:58:11.934Z,3.70
2018-12-25T00:59:11.910Z,3.40
2018-12-25T01:00:11.886Z,3.50
2018-12-25T01:01:11.867Z,3.80
2018-12-25T01:02:11.838Z,4.00
2018-12-25T01:03:11.828Z,3.70
2018-12-25T01:04:11.796Z,3.80
2018-12-25T01:05:11.769Z,3.50
2018-12-25T01:06:11.759Z,3.70
2018-12-25T01:07:11.726Z,3.30
2018-12-25T01:08:11.701Z,3.50
2018-12-25T01:09:11.681Z,4.10
2018-12-25T01:10:11.659Z,3.40
2018-12-25T01:11:11.637Z,4.00
2018-12-25T01:12:11.611Z,3.70
2018-12-25T01:13:11.593Z,3.40
2018-12-25T01:14:11.569Z,3.90
2018-12-25T01:15:11.542Z,3.90
2018-12-25T01:16:11.522Z,4.00
2018-12-25T01:17:11.498Z,4.10
2018-12-25T01:18:11.470Z,3.60
2018-12-25T01:19:11.453Z,4.00
2018-12-25T01:20:11.434Z,3.40
2018-12-25T01:21:11.403Z,3.40
2018-12-25T01:22:11.384Z,3.60
2018-12-25T01:23:11.365Z,3.90
2018-12-25T01:24:11.341Z,3.90
2018-12-25T01:25:11.314Z,3.80
2018-12-25T01:26:11.295Z,3.70
2018-12-25T01:27:11.268Z,3.60
2018-12-25T01:28:11.247Z,3.50
2018-12-25T01:29:11.230Z,3.60
2018-12-25T01:30:11.203Z,3.50
2018-12-25T01:31:11.178Z,3.80
2018-12-25T01:32:11.156Z,3.90
2018-12-25T01:33:11.132Z,3.60
2018-12-25T01:34:11.110Z,3.60
2018-12-25T01:35:11.083Z,3.80
2018-12-25T01:36:11.071Z,4.20
2018-12-25T01:37:11.042Z,3.70
2018-12-25T01:38:11.019Z,4.50
2018-12-25T01:39:11.001Z,3.80
2018-12-25T01:40:10.974Z,3.80
2018-12-25T01:41:10.947Z,3.90
2018-12-25T01:42:10.927Z,4.40
2018-12-25T01:43:10.904Z,4.30
2018-12-25T01:44:10.875Z,3.50
2018-12-25T01:45:10.857Z,3.00
2018-12-25T01:46:10.833Z,3.30
2018-12-25T01:47:10.817Z,3.00
2018-12-25T01:48:10.793Z,3.20
2018-12-25T01:49:10.763Z,3.30
2018-12-25T01:50:10.742Z,3.70
2018-12-25T01:51:10.725Z,3.10
2018-12-25T01:52:10.699Z,3.30
2018-12-25T01:53:10.673Z,3.30
2018-12-25T01:54:10.651Z,3.20
2018-12-25T01:55:10.629Z,3.50
2018-12-25T01:56:10.607Z,3.30
2018-12-25T01:57:10.583Z,3.80
2018-12-25T01:58:10.561Z,3.60
2018-12-25T01:59:10.537Z,3.40
2018-12-25T02:00:10.519Z,3.50
2018-12-25T02:01:10.495Z,3.70
2018-12-25T02:02:10.475Z,3.90
2018-12-25T02:03:10.450Z,3.40
2018-12-25T02:04:10.423Z,3.70
2018-12-25T02:05:10.401Z,3.60
2018-12-25T02:06:10.377Z,4.20
2018-12-25T02:07:10.366Z,4.10
2018-12-25T02:08:10.333Z,4.90
2018-12-25T02:09:10.307Z,4.50
2018-12-25T02:10:10.288Z,4.70
2018-12-25T02:11:10.265Z,4.20
2018-12-25T02:12:10.241Z,4.90
2018-12-25T02:13:10.219Z,4.50
2018-12-25T02:14:10.199Z,4.90
2018-12-25T02:15:10.175Z,4.60
2018-12-25T02:16:10.150Z,4.70
2018-12-25T02:17:10.130Z,5.10
2018-12-25T02:18:10.109Z,5.10
2018-12-25T02:19:10.084Z,5.50
2018-12-25T02:20:10.061Z,5.00
2018-12-25T02:21:10.038Z,5.80
2018-12-25T02:22:10.018Z,5.20
2018-12-25T02:23:09.998Z,4.90
2018-12-25T02:24:09.968Z,4.70
2018-12-25T02:25:09.948Z,5.00
2018-12-25T02:26:09.926Z,5.20
2018-12-25T02:27:09.902Z,5.00
2018-12-25T02:28:09.890Z,4.80
2018-12-25T02:29:09.856Z,4.90
2018-12-25T02:30:09.840Z,4.60
2018-12-25T02:31:09.815Z,5.20
2018-12-25T02:32:09.795Z,4.70
2018-12-25T02:33:09.771Z,4.50
2018-12-25T02:34:09.741Z,4.40
2018-12-25T02:35:09.716Z,4.30
2018-12-25T02:36:09.696Z,4.50
2018-12-25T02:37:09.674Z,4.40
2018-12-25T02:38:09.652Z,4.30
2018-12-25T02:39:09.634Z,4.40
2018-12-25T02:40:09.606Z,4.70
2018-12-25T02:41:09.583Z,4.90
2018-12-25T02:42:09.564Z,4.40
2018-12-25T02:43:09.539Z,5.00
2018-12-25T02:44:09.516Z,4.50
2018-12-25T02:45:09.494Z,4.20
2018-12-25T02:46:09.476Z,4.60
2018-12-25T02:47:09.454Z,4.30
2018-12-25T02:48:09.430Z,4.50
2018-12-25T02:49:09.405Z,4.60
2018-12-25T02:50:09.381Z,4.90
2018-12-25T02:51:09.360Z,4.60
2018-12-25T02:52:09.334Z,4.30
2018-12-25T02:53:09.312Z,4.90
2018-12-25T02:54:09.293Z,4.60
2018-12-25T02:55:09.381Z,4.20
2018-12-25T02:56:09.247Z,4.50
2018-12-25T02:57:09.222Z,4.30
2018-12-25T02:58:09.198Z,4.10
2018-12-25T02:59:09.176Z,4.20
2018-12-25T03:00:09.154Z,4.20
2018-12-25T03:01:09.128Z,4.60
2018-12-25T03:02:09.107Z,4.30
2018-12-25T03:03:09.085Z,4.20
2018-12-25T03:04:09.066Z,4.50
2018-12-25T03:05:09.042Z,4.10
2018-12-25T03:06:09.017Z,4.10
2018-12-25T03:07:08.996Z,4.60
2018-12-25T03:08:08.972Z,4.10
2018-12-25T03:09:08.954Z,4.30
2018-12-25T03:10:08.943Z,4.20
2018-12-25T03:11:08.905Z,4.10
2018-12-25T03:12:08.879Z,3.70
2018-12-25T03:13:08.860Z,4.10
2018-12-25T03:14:08.836Z,3.70
2018-12-25T03:15:08.811Z,3.60
2018-12-25T03:16:08.793Z,4.20
2018-12-25T03:17:08.766Z,3.70
2018-12-25T03:18:08.746Z,3.60
2018-12-25T03:19:08.721Z,3.80
2018-12-25T03:20:08.701Z,3.60
2018-12-25T03:21:08.678Z,3.40
2018-12-25T03:22:08.660Z,3.30
2018-12-25T03:23:08.636Z,3.70
2018-12-25T03:24:08.608Z,3.30
2018-12-25T03:25:08.587Z,3.30
2018-12-25T03:26:08.564Z,3.40
2018-12-25T03:27:08.542Z,3.30
2018-12-25T03:28:08.526Z,3.20
2018-12-25T03:29:08.496Z,3.70
2018-12-25T03:30:08.483Z,3.90
2018-12-25T03:31:08.451Z,3.70
2018-12-25T03:32:08.438Z,3.90
2018-12-25T03:33:08.412Z,3.30
2018-12-25T03:34:08.380Z,3.60
2018-12-25T03:35:08.362Z,3.40
2018-12-25T03:36:08.338Z,3.50
2018-12-25T03:37:08.316Z,3.70
2018-12-25T03:38:08.294Z,3.50
2018-12-25T03:39:08.276Z,3.60
2018-12-25T03:40:08.248Z,3.60
2018-12-25T03:41:08.224Z,3.30
2018-12-25T03:42:08.206Z,3.20
2018-12-25T03:43:08.185Z,3.60
2018-12-25T03:44:08.166Z,3.90
2018-12-25T03:45:08.136Z,3.80
2018-12-25T03:46:08.114Z,3.40
2018-12-25T03:47:08.090Z,4.10
2018-12-25T03:48:08.072Z,5.50
2018-12-25T03:49:08.044Z,5.00
2018-12-25T03:50:10.773Z,4.00
2018-12-25T03:51:08.002Z,3.90
2018-12-25T03:52:07.976Z,3.20
2018-12-25T03:53:07.956Z,4.00
2018-12-25T03:54:07.943Z,3.50
2018-12-25T03:55:07.912Z,3.30
2018-12-25T03:56:07.884Z,3.40
2018-12-25T03:57:07.866Z,3.80
2018-12-25T03:58:07.843Z,3.80
2018-12-25T03:59:07.820Z,3.80
2018-12-25T04:00:07.797Z,3.50
2018-12-25T04:01:07.773Z,3.00
2018-12-25T04:02:07.754Z,3.40
2018-12-25T04:03:07.734Z,3.50
2018-12-25T04:04:07.707Z,3.30
2018-12-25T04:05:07.686Z,3.10
2018-12-25T04:06:07.660Z,3.30
2018-12-25T04:07:07.643Z,2.90
2018-12-25T04:08:07.615Z,3.20
2018-12-25T04:09:07.591Z,3.00
2018-12-25T04:10:07.574Z,3.50
2018-12-25T04:11:07.547Z,3.10
2018-12-25T04:12:07.524Z,2.90
2018-12-25T04:13:07.502Z,3.00
2018-12-25T04:14:07.481Z,2.80
2018-12-25T04:15:07.460Z,2.80
2018-12-25T04:16:07.434Z,2.50
2018-12-25T04:17:07.412Z,2.80
2018-12-25T04:18:07.392Z,3.00
2018-12-25T04:19:07.369Z,2.50
2018-12-25T04:20:07.345Z,2.60
2018-12-25T04:21:07.322Z,3.30
2018-12-25T04:22:07.302Z,3.00
2018-12-25T04:23:07.286Z,2.70
2018-12-25T04:24:07.257Z,3.00
2018-12-25T04:25:07.232Z,2.60
2018-12-25T04:26:07.213Z,2.40
2018-12-25T04:27:07.191Z,2.40
2018-12-25T04:28:07.164Z,2.90
2018-12-25T04:29:07.141Z,2.60
2018-12-25T04:30:07.130Z,2.20
2018-12-25T04:31:07.100Z,2.70
2018-12-25T04:32:07.078Z,2.40
2018-12-25T04:33:07.053Z,3.20
2018-12-25T04:34:07.029Z,2.50
2018-12-25T04:35:07.007Z,2.60
2018-12-25T04:36:07.069Z,2.50
2018-12-25T04:37:06.969Z,2.70
2018-12-25T04:38:06.945Z,2.20
2018-12-25T04:39:06.917Z,2.40
2018-12-25T04:40:06.896Z,2.30
2018-12-25T04:41:06.878Z,2.50
2018-12-25T04:42:06.849Z,2.70
2018-12-25T04:43:06.827Z,3.30
2018-12-25T04:44:06.807Z,2.10
2018-12-25T04:45:06.781Z,2.40
2018-12-25T04:46:06.758Z,2.10
2018-12-25T04:47:06.738Z,2.40
2018-12-25T04:48:06.711Z,1.90
2018-12-25T04:49:06.698Z,2.30
2018-12-25T04:50:06.667Z,1.80
2018-12-25T04:51:06.652Z,2.10
2018-12-25T04:52:06.629Z,2.20
2018-12-25T04:53:06.605Z,1.90
2018-12-25T04:54:06.580Z,2.10
2018-12-25T04:55:06.556Z,1.60
2018-12-25T04:56:06.539Z,2.00
2018-12-25T04:57:06.516Z,1.80
2018-12-25T04:58:06.491Z,1.60
2018-12-25T04:59:06.471Z,2.00
2018-12-25T05:00:06.449Z,1.80
2018-12-25T05:01:06.419Z,1.70
2018-12-25T05:02:06.395Z,2.00
2018-12-25T05:03:06.381Z,1.80
2018-12-25T05:04:06.351Z,1.40
2018-12-25T05:05:06.329Z,1.70
2018-12-25T05:06:06.305Z,1.70
2018-12-25T05:07:06.289Z,1.80
2018-12-25T05:08:06.266Z,1.40
2018-12-25T05:09:06.258Z,1.40
2018-12-25T05:10:06.221Z,1.50
2018-12-25T05:11:06.201Z,1.70
2018-12-25T05:12:06.171Z,1.80
2018-12-25T05:13:06.154Z,1.50
2018-12-25T05:14:06.127Z,1.50
2018-12-25T05:15:06.147Z,1.30
2018-12-25T05:16:06.085Z,1.90
2018-12-25T05:17:06.059Z,1.60
2018-12-25T05:18:06.039Z,1.30
2018-12-25T05:19:06.017Z,1.50
2018-12-25T05:20:05.996Z,1.50
2018-12-25T05:21:05.969Z,1.70
2018-12-25T05:22:05.948Z,1.50
2018-12-25T05:23:05.938Z,1.40
2018-12-25T05:24:05.904Z,1.50
2018-12-25T05:25:05.880Z,1.40
2018-12-25T05:26:05.858Z,1.40
2018-12-25T05:27:05.837Z,1.50
2018-12-25T05:28:05.810Z,1.30
2018-12-25T05:29:05.790Z,1.30
2018-12-25T05:30:05.768Z,1.40
2018-12-25T05:31:05.746Z,1.40
2018-12-25T05:32:05.723Z,1.80
2018-12-25T05:33:05.704Z,1.40
2018-12-25T05:34:05.682Z,0.90
2018-12-25T05:35:05.654Z,1.10
2018-12-25T05:36:05.633Z,1.10
2018-12-25T05:37:05.610Z,1.10
2018-12-25T05:38:05.590Z,1.10
2018-12-25T05:39:05.567Z,1.30
2018-12-25T05:40:05.541Z,0.90
2018-12-25T05:41:05.518Z,1.20
2018-12-25T05:42:05.498Z,0.80
2018-12-25T05:43:05.478Z,0.90
2018-12-25T05:44:05.452Z,1.20
2018-12-25T05:45:05.433Z,0.90
2018-12-25T05:46:05.414Z,1.00
2018-12-25T05:47:05.386Z,1.00
2018-12-25T05:48:05.362Z,1.20
2018-12-25T05:49:05.342Z,0.90
2018-12-25T05:50:05.318Z,1.00
2018-12-25T05:51:05.297Z,1.00
2018-12-25T05:52:05.270Z,1.00
2018-12-25T05:53:05.249Z,0.90
2018-12-25T05:54:05.231Z,1.00
2018-12-25T05:55:05.207Z,1.00
2018-12-25T05:56:05.180Z,1.10
2018-12-25T05:57:05.162Z,1.10
2018-12-25T05:58:05.234Z,1.10
2018-12-25T05:59:05.116Z,1.20
2018-12-25T06:00:05.094Z,0.90
2018-12-25T06:01:05.069Z,1.00
2018-12-25T06:02:05.057Z,0.90
2018-12-25T06:03:05.022Z,1.00
2018-12-25T06:04:05.004Z,0.90
2018-12-25T06:05:04.980Z,0.80
2018-12-25T06:06:04.958Z,1.20
2018-12-25T06:07:04.935Z,0.80
2018-12-25T06:08:04.912Z,0.90
2018-12-25T06:09:04.887Z,0.90
2018-12-25T06:10:04.867Z,0.90
2018-12-25T06:11:04.844Z,1.10
2018-12-25T06:12:04.821Z,1.10
2018-12-25T06:13:04.801Z,1.20
2018-12-25T06:14:04.776Z,1.00
2018-12-25T06:15:04.752Z,2.10
2018-12-25T06:16:04.740Z,3.00
2018-12-25T06:17:04.712Z,3.70
2018-12-25T06:18:04.687Z,2.00
2018-12-25T06:19:04.668Z,2.70
2018-12-25T06:20:04.639Z,1.50
2018-12-25T06:21:04.622Z,1.00
2018-12-25T06:22:04.596Z,0.80
2018-12-25T06:23:04.576Z,0.90
2018-12-25T06:24:04.554Z,0.70
2018-12-25T06:25:04.536Z,0.80
2018-12-25T06:26:04.513Z,0.90
2018-12-25T06:27:04.482Z,1.00
2018-12-25T06:28:04.462Z,0.80
2018-12-25T06:29:04.438Z,1.10
2018-12-25T06:30:04.418Z,1.00
2018-12-25T06:31:04.396Z,1.00
2018-12-25T06:32:04.369Z,1.00
2018-12-25T06:33:04.348Z,1.00
2018-12-25T06:34:04.328Z,1.10
2018-12-25T06:35:04.303Z,1.00
2018-12-25T06:36:04.292Z,1.00
2018-12-25T06:37:04.258Z,0.70
2018-12-25T06:38:04.239Z,0.90
2018-12-25T06:39:04.216Z,0.90
2018-12-25T06:40:04.192Z,1.00
2018-12-25T06:41:04.164Z,0.90
2018-12-25T06:42:04.154Z,0.80
2018-12-25T06:43:04.124Z,0.80
2018-12-25T06:44:04.100Z,1.20
2018-12-25T06:45:04.076Z,0.80
2018-12-25T06:46:04.056Z,0.90
2018-12-25T06:47:04.042Z,0.90
2018-12-25T06:48:04.014Z,0.90
2018-12-25T06:49:03.990Z,0.90
2018-12-25T06:50:03.968Z,1.20
2018-12-25T06:51:04.312Z,1.00
2018-12-25T06:52:03.920Z,1.00
2018-12-25T06:53:03.902Z,1.20
2018-12-25T06:54:03.888Z,1.10
2018-12-25T06:55:03.855Z,1.30
2018-12-25T06:56:03.828Z,1.30
2018-12-25T06:57:03.811Z,1.30
2018-12-25T06:58:03.788Z,1.00
2018-12-25T06:59:03.762Z,1.10
2018-12-25T07:00:03.743Z,1.10
2018-12-25T07:01:03.725Z,1.10
2018-12-25T07:02:03.699Z,1.10
2018-12-25T07:03:03.673Z,1.00
2018-12-25T07:04:03.652Z,1.10
2018-12-25T07:05:03.631Z,1.20
2018-12-25T07:06:03.603Z,1.00
2018-12-25T07:07:03.588Z,1.20
2018-12-25T07:08:03.563Z,1.10
2018-12-25T07:09:03.538Z,1.10
2018-12-25T07:10:03.512Z,1.10
2018-12-25T07:11:03.498Z,1.20
2018-12-25T07:12:03.468Z,1.20
2018-12-25T07:13:03.443Z,1.00
2018-12-25T07:14:03.423Z,1.20
2018-12-25T07:15:03.403Z,1.10
2018-12-25T07:16:03.379Z,1.30
2018-12-25T07:17:03.358Z,1.20
2018-12-25T07:18:03.337Z,1.20
2018-12-25T07:19:03.310Z,1.10
2018-12-25T07:20:03.288Z,1.20
2018-12-25T07:21:03.264Z,1.10
2018-12-25T07:22:03.242Z,1.20
2018-12-25T07:23:03.219Z,0.90
2018-12-25T07:24:03.199Z,1.10
2018-12-25T07:25:03.176Z,1.20
2018-12-25T07:26:03.150Z,1.10
2018-12-25T07:27:03.131Z,1.10
2018-12-25T07:28:03.112Z,1.20
2018-12-25T07:29:03.075Z,1.10
2018-12-25T07:30:03.062Z,1.10
2018-12-25T07:31:03.042Z,1.10
2018-12-25T07:32:03.023Z,0.90
2018-12-25T07:33:02.997Z,1.10
2018-12-25T07:34:02.975Z,1.10
2018-12-25T07:35:02.951Z,1.20
2018-12-25T07:36:02.920Z,1.10
2018-12-25T07:37:02.904Z,1.10
2018-12-25T07:38:02.889Z,1.10
2018-12-25T07:39:02.858Z,1.00
2018-12-25T07:40:02.834Z,1.30
2018-12-25T07:41:02.812Z,0.90
2018-12-25T07:42:02.790Z,1.20
2018-12-25T07:43:02.772Z,1.00
2018-12-25T07:44:02.746Z,1.40
2018-12-25T07:45:02.724Z,1.30
2018-12-25T07:46:02.697Z,1.20
2018-12-25T07:47:02.672Z,1.00
2018-12-25T07:48:02.652Z,1.10
2018-12-25T07:49:02.629Z,1.30
2018-12-25T07:50:02.612Z,1.10
2018-12-25T07:51:02.587Z,1.10
2018-12-25T07:52:02.565Z,1.10
2018-12-25T07:53:02.542Z,1.20
2018-12-25T07:54:02.518Z,1.20
2018-12-25T07:55:02.507Z,1.20
2018-12-25T07:56:02.476Z,1.10
2018-12-25T07:57:02.454Z,1.20
2018-12-25T07:58:02.430Z,1.30
2018-12-25T07:59:02.408Z,1.30
2018-12-25T08:00:02.383Z,1.20
2018-12-25T08:01:02.365Z,1.40
2018-12-25T08:02:02.337Z,1.30
2018-12-25T08:03:02.323Z,1.30
2018-12-25T08:04:02.289Z,1.40
2018-12-25T08:05:02.267Z,1.40
2018-12-25T08:06:02.243Z,1.30
2018-12-25T08:07:02.231Z,1.50
2018-12-25T08:08:02.204Z,1.50
2018-12-25T08:09:02.179Z,1.40
2018-12-25T08:10:02.156Z,1.40
2018-12-25T08:11:02.135Z,1.50
2018-12-25T08:12:02.128Z,1.10
2018-12-25T08:13:02.094Z,1.50
2018-12-25T08:14:02.069Z,1.50
2018-12-25T08:15:02.040Z,1.60
2018-12-25T08:16:02.023Z,1.40
2018-12-25T08:17:01.995Z,1.50
2018-12-25T08:18:01.976Z,1.20
2018-12-25T08:19:01.951Z,1.80
2018-12-25T08:20:01.930Z,1.40
2018-12-25T08:21:01.906Z,1.10
2018-12-25T08:22:01.884Z,1.40
2018-12-25T08:23:02.687Z,1.40
2018-12-25T08:24:01.839Z,1.30
2018-12-25T08:25:01.825Z,1.40
2018-12-25T08:26:01.799Z,1.10
2018-12-25T08:27:01.770Z,1.20
2018-12-25T08:28:01.746Z,1.30
2018-12-25T08:29:01.725Z,1.30
2018-12-25T08:30:01.706Z,1.60
2018-12-25T08:31:01.687Z,1.30
2018-12-25T08:32:01.665Z,1.40
2018-12-25T08:33:01.632Z,1.60
2018-12-25T08:34:01.613Z,1.60
2018-12-25T08:35:01.601Z,1.30
2018-12-25T08:36:01.565Z,1.30
2018-12-25T08:37:01.548Z,1.70
2018-12-25T08:38:01.526Z,1.40
2018-12-25T08:39:01.501Z,1.60
2018-12-25T08:40:01.482Z,1.40
2018-12-25T08:41:01.454Z,1.70
2018-12-25T08:42:01.431Z,1.50
2018-12-25T08:43:01.408Z,1.60
2018-12-25T08:44:01.388Z,1.60
2018-12-25T08:45:01.368Z,1.30
2018-12-25T08:46:01.348Z,1.50
2018-12-25T08:47:02.610Z,1.60
2018-12-25T08:48:01.309Z,1.60
2018-12-25T08:49:01.275Z,1.50
2018-12-25T08:50:01.251Z,1.40
2018-12-25T08:51:01.228Z,1.20
2018-12-25T08:52:01.217Z,1.20
2018-12-25T08:53:01.185Z,1.30
2018-12-25T08:54:01.163Z,1.40
2018-12-25T08:55:01.143Z,1.20
2018-12-25T08:56:01.117Z,1.40
2018-12-25T08:57:01.093Z,1.20
2018-12-25T08:58:01.070Z,1.40
2018-12-25T08:59:01.051Z,1.40
2018-12-25T09:00:01.031Z,1.20
2018-12-25T09:01:01.007Z,1.40
2018-12-25T09:02:00.981Z,1.40
2018-12-25T09:03:00.960Z,1.10
2018-12-25T09:04:00.943Z,1.20
2018-12-25T09:05:00.915Z,1.30
2018-12-25T09:06:00.894Z,1.20
2018-12-25T09:07:00.868Z,1.20
2018-12-25T09:08:00.847Z,1.20
2018-12-25T09:09:00.825Z,1.30
2018-12-25T09:10:00.807Z,1.10
2018-12-25T09:11:00.788Z,1.20
2018-12-25T09:12:00.759Z,1.50
2018-12-25T09:13:00.733Z,1.30
2018-12-25T09:14:00.709Z,1.30
2018-12-25T09:15:00.697Z,1.10
2018-12-25T09:16:00.668Z,1.30
2018-12-25T09:17:00.645Z,1.30
2018-12-25T09:18:00.631Z,1.30
2018-12-25T09:19:00.599Z,1.20
2018-12-25T09:20:00.578Z,1.00
2018-12-25T09:21:00.557Z,1.30
2018-12-25T09:22:00.535Z,1.30
2018-12-25T09:23:00.507Z,1.30
2018-12-25T09:24:00.489Z,1.10
2018-12-25T09:25:00.467Z,1.00
2018-12-25T09:26:00.443Z,1.20
2018-12-25T09:27:00.423Z,1.40
2018-12-25T09:28:00.400Z,1.30
2018-12-25T09:29:00.375Z,1.50
2018-12-25T09:30:00.350Z,1.40
2018-12-25T09:31:00.336Z,1.10
2018-12-25T09:32:00.309Z,1.20
2018-12-25T09:33:00.284Z,1.20
2018-12-25T09:34:00.264Z,1.20
2018-12-25T09:35:00.239Z,1.10
2018-12-25T09:36:00.217Z,1.50
2018-12-25T09:37:00.201Z,1.20
2018-12-25T09:38:00.174Z,1.00
2018-12-25T09:39:00.151Z,1.30
2018-12-25T09:40:00.152Z,1.20
2018-12-25T09:41:00.107Z,1.10
2018-12-25T09:42:00.088Z,1.00
2018-12-25T09:43:00.063Z,1.20
2018-12-25T09:44:00.041Z,1.10
2018-12-25T09:45:00.015Z,0.90
2018-12-25T09:45:59.995Z,1.00
2018-12-25T09:46:59.977Z,1.10
2018-12-25T09:47:59.953Z,1.30
2018-12-25T09:48:59.931Z,1.20
2018-12-25T09:49:59.907Z,1.20
2018-12-25T09:50:59.885Z,1.20
2018-12-25T09:51:59.867Z,1.10
2018-12-25T09:52:59.836Z,2.20
2018-12-25T09:53:59.821Z,1.30
2018-12-25T09:54:59.798Z,9.30
2018-12-25T09:55:59.775Z,1.80
2018-12-25T09:56:59.751Z,1.60
2018-12-25T09:57:59.729Z,1.90
2018-12-25T09:58:59.706Z,1.60
2018-12-25T09:59:59.688Z,1.40
2018-12-25T10:00:59.662Z,1.10
2018-12-25T10:01:59.643Z,1.20
2018-12-25T10:02:59.616Z,1.10
2018-12-25T10:03:59.598Z,1.10
2018-12-25T10:04:59.573Z,1.00
2018-12-25T10:05:59.548Z,1.10
2018-12-25T10:06:59.533Z,1.40
2018-12-25T10:07:59.512Z,1.20
2018-12-25T10:08:59.484Z,1.60
2018-12-25T10:09:59.461Z,1.50
2018-12-25T10:10:59.442Z,1.60
2018-12-25T10:11:59.423Z,1.50
2018-12-25T10:12:59.396Z,1.70
2018-12-25T10:13:59.377Z,1.60
2018-12-25T10:14:59.352Z,1.30
2018-12-25T10:15:59.331Z,1.10
2018-12-25T10:16:59.313Z,1.50
2018-12-25T10:17:59.656Z,1.20
2018-12-25T10:18:59.266Z,1.40
2018-12-25T10:19:59.249Z,1.30
2018-12-25T10:20:59.222Z,1.40
2018-12-25T10:22:03.223Z,1.30
2018-12-25T10:22:59.180Z,1.40
2018-12-25T10:23:59.154Z,1.30
2018-12-25T10:24:59.143Z,1.30
2018-12-25T10:25:59.115Z,1.00
2018-12-25T10:26:59.092Z,1.20
2018-12-25T10:27:59.072Z,1.10
2018-12-25T10:28:59.056Z,1.30
2018-12-25T10:29:59.026Z,1.30
2018-12-25T10:30:59.000Z,1.20
2018-12-25T10:31:58.979Z,1.30
2018-12-25T10:32:58.955Z,1.20
2018-12-25T10:33:58.949Z,1.20
2018-12-25T10:34:58.914Z,1.20
2018-12-25T10:35:58.893Z,1.20
2018-12-25T10:36:58.873Z,1.40
2018-12-25T10:37:58.850Z,1.30
2018-12-25T10:38:58.824Z,1.20
2018-12-25T10:39:58.804Z,1.10
2018-12-25T10:40:58.776Z,1.20
2018-12-25T10:41:58.757Z,1.20
2018-12-25T10:42:58.736Z,1.10
2018-12-25T10:43:58.713Z,1.20
2018-12-25T10:44:58.689Z,1.20
2018-12-25T10:45:58.769Z,1.10
2018-12-25T10:46:58.652Z,1.10
2018-12-25T10:47:58.625Z,1.10
2018-12-25T10:48:58.606Z,1.20
2018-12-25T10:49:58.586Z,0.90
2018-12-25T10:50:58.560Z,1.00
2018-12-25T10:51:58.544Z,1.20
2018-12-25T10:52:58.517Z,1.10
2018-12-25T10:53:58.493Z,1.00
2018-12-25T10:54:58.480Z,1.20
2018-12-25T10:55:58.452Z,1.20
2018-12-25T10:56:58.433Z,1.00
2018-12-25T10:57:58.410Z,1.20
2018-12-25T10:58:58.394Z,1.30
2018-12-25T10:59:58.366Z,1.50
2018-12-25T11:00:58.342Z,1.20
2018-12-25T11:01:58.322Z,1.10
2018-12-25T11:02:58.301Z,1.20
2018-12-25T11:03:58.278Z,1.20
2018-12-25T11:04:58.254Z,1.30
2018-12-25T11:05:58.234Z,1.00
2018-12-25T11:06:58.210Z,1.30
2018-12-25T11:07:58.191Z,0.90
2018-12-25T11:08:58.170Z,1.10
2018-12-25T11:09:58.146Z,1.00
2018-12-25T11:10:58.128Z,1.00
2018-12-25T11:11:58.123Z,1.30
2018-12-25T11:12:58.087Z,1.30
2018-12-25T11:13:58.060Z,1.30
2018-12-25T11:14:58.039Z,1.20
2018-12-25T11:15:58.019Z,1.20
2018-12-25T11:16:57.995Z,1.10
2018-12-25T11:17:57.975Z,1.30
2018-12-25T11:18:57.949Z,1.10
2018-12-25T11:19:57.933Z,1.00
2018-12-25T11:20:57.909Z,1.00
2018-12-25T11:21:57.896Z,1.10
2018-12-25T11:22:57.876Z,1.00
2018-12-25T11:23:57.851Z,1.20
2018-12-25T11:24:57.822Z,1.20
2018-12-25T11:25:57.807Z,1.00
2018-12-25T11:26:57.782Z,1.20
2018-12-25T11:27:57.754Z,1.00
2018-12-25T11:28:57.756Z,1.00
2018-12-25T11:29:57.716Z,0.80
2018-12-25T11:30:57.693Z,1.00
2018-12-25T11:31:57.675Z,0.80
2018-12-25T11:32:57.650Z,1.00
2018-12-25T11:33:57.627Z,1.00
2018-12-25T11:34:57.608Z,0.90
2018-12-25T11:35:57.585Z,0.80
2018-12-25T11:36:57.562Z,0.90
2018-12-25T11:37:57.545Z,0.80
2018-12-25T11:38:57.519Z,1.10
2018-12-25T11:39:57.503Z,1.00
2018-12-25T11:40:57.479Z,0.90
2018-12-25T11:41:57.458Z,1.10
2018-12-25T11:42:57.434Z,1.00
2018-12-25T11:43:57.420Z,1.10
2018-12-25T11:44:57.389Z,1.10
2018-12-25T11:45:57.369Z,0.80
2018-12-25T11:46:57.345Z,0.90
2018-12-25T11:47:57.328Z,1.00
2018-12-25T11:48:57.303Z,0.90
2018-12-25T11:49:57.288Z,0.80
2018-12-25T11:50:57.264Z,0.80
2018-12-25T11:51:57.293Z,0.80
2018-12-25T11:52:57.223Z,0.90
2018-12-25T11:53:57.197Z,0.80
2018-12-25T11:54:57.175Z,0.90
2018-12-25T11:55:57.152Z,0.80
2018-12-25T11:56:57.137Z,0.80
2018-12-25T11:57:57.112Z,0.80
2018-12-25T11:58:57.090Z,0.80
2018-12-25T11:59:57.097Z,0.80
2018-12-25T12:00:57.044Z,0.80
2018-12-25T12:01:57.024Z,1.00
2018-12-25T12:02:57.001Z,0.90
2018-12-25T12:03:56.983Z,0.80
2018-12-25T12:04:56.960Z,0.80
2018-12-25T12:05:56.945Z,0.70
2018-12-25T12:06:56.918Z,0.90
2018-12-25T12:07:56.901Z,0.70
2018-12-25T12:08:56.878Z,0.80
2018-12-25T12:09:56.853Z,0.90
2018-12-25T12:10:56.828Z,0.90
2018-12-25T12:11:56.808Z,0.70
2018-12-25T12:12:56.787Z,0.90
2018-12-25T12:13:56.768Z,0.70
2018-12-25T12:14:58.525Z,0.70
2018-12-25T12:15:56.722Z,1.00
2018-12-25T12:16:56.702Z,1.00
2018-12-25T12:17:56.680Z,0.70
2018-12-25T12:18:56.657Z,0.90
2018-12-25T12:19:56.637Z,0.80
2018-12-25T12:20:56.619Z,0.70
2018-12-25T12:21:56.597Z,0.80
2018-12-25T12:22:56.568Z,0.70
2018-12-25T12:23:56.549Z,0.90
2018-12-25T12:24:56.531Z,0.80
2018-12-25T12:25:56.509Z,0.90
2018-12-25T12:26:56.487Z,0.90
2018-12-25T12:27:56.463Z,0.70
2018-12-25T12:28:56.445Z,0.80
2018-12-25T12:29:56.424Z,0.80
2018-12-25T12:30:56.400Z,0.70
2018-12-25T12:31:56.378Z,1.10
2018-12-25T12:32:56.360Z,0.80
2018-12-25T12:33:56.336Z,0.80
2018-12-25T12:34:56.328Z,0.70
2018-12-25T12:35:56.304Z,0.90
2018-12-25T12:36:56.273Z,0.90
2018-12-25T12:37:56.254Z,0.90
2018-12-25T12:38:56.227Z,0.90
2018-12-25T12:39:56.206Z,0.80
2018-12-25T12:40:56.186Z,0.90
2018-12-25T12:41:56.166Z,0.80
2018-12-25T12:42:56.141Z,0.80
2018-12-25T12:43:56.124Z,1.00
2018-12-25T12:44:56.098Z,1.00
2018-12-25T12:45:56.079Z,1.00
2018-12-25T12:46:56.056Z,0.80
2018-12-25T12:47:56.040Z,0.80
2018-12-25T12:48:56.018Z,0.80
2018-12-25T12:49:55.992Z,0.90
2018-12-25T12:50:55.982Z,0.80
2018-12-25T12:51:55.948Z,0.80
2018-12-25T12:52:55.926Z,1.00
2018-12-25T12:53:55.906Z,1.10
2018-12-25T12:54:55.886Z,1.10
2018-12-25T12:55:55.869Z,0.90
2018-12-25T12:56:55.842Z,1.00
2018-12-25T12:57:55.820Z,1.30
2018-12-25T12:58:55.796Z,1.20
2018-12-25T12:59:55.778Z,0.90
2018-12-25T13:00:55.758Z,0.80
2018-12-25T13:01:55.732Z,0.90
2018-12-25T13:02:55.710Z,0.90
2018-12-25T13:03:55.694Z,0.90
2018-12-25T13:04:55.670Z,1.00
2018-12-25T13:05:55.647Z,0.90
2018-12-25T13:06:55.627Z,1.00
2018-12-25T13:07:55.604Z,1.00
2018-12-25T13:08:55.593Z,1.00
2018-12-25T13:09:55.565Z,1.00
2018-12-25T13:10:55.543Z,1.10
2018-12-25T13:11:55.520Z,1.00
2018-12-25T13:12:55.499Z,0.90
2018-12-25T13:13:55.477Z,1.00
2018-12-25T13:14:55.454Z,1.10
2018-12-25T13:15:55.437Z,1.00
2018-12-25T13:16:55.423Z,0.80
2018-12-25T13:17:55.390Z,1.00